sensor_id;sensor_type;location;lat;lon;timestamp;P1;durP1;ratioP1;P2;durP2;ratioP2
36213;SDS011;37652;50.400;30.628;2022-12-10T04:25:08;70.05;;;25.70;;
36213;SDS011;37652;50.400;30.628;2022-12-10T04:27:31;74.43;;;23.42;;
36213;SDS011;37652;50.400;30.628;2022-12-10T04:29:35;128.75;;;25.85;;
36213;SDS011;37652;50.400;30.628;2022-12-10T04:31:36;99.57;;;26.13;;
36213;SDS011;37652;50.400;30.628;2022-12-10T04:33:36;92.50;;;24.30;;
36213;SDS011;37652;50.400;30.628;2022-12-10T04:35:37;96.83;;;24.60;;
36213;SDS011;37652;50.400;30.628;2022-12-10T04:37:38;92.23;;;24.53;;
36213;SDS011;37652;50.400;30.628;2022-12-10T04:39:39;103.95;;;25.17;;
36213;SDS011;37652;50.400;30.628;2022-12-10T04:41:40;280.20;;;33.47;;
36213;SDS011;37652;50.400;30.628;2022-12-10T04:43:42;88.18;;;23.58;;
36213;SDS011;37652;50.400;30.628;2022-12-10T04:45:42;90.25;;;23.05;;
36213;SDS011;37652;50.400;30.628;2022-12-10T04:47:43;159.43;;;28.17;;
36213;SDS011;37652;50.400;30.628;2022-12-10T04:49:44;107.80;;;25.83;;
36213;SDS011;37652;50.400;30.628;2022-12-10T04:51:45;120.85;;;26.65;;
36213;SDS011;37652;50.400;30.628;2022-12-10T04:53:46;61.80;;;19.70;;
36213;SDS011;37652;50.400;30.628;2022-12-10T04:55:47;145.52;;;28.15;;
36213;SDS011;37652;50.400;30.628;2022-12-10T04:57:48;95.88;;;26.85;;
36213;SDS011;37652;50.400;30.628;2022-12-10T04:59:49;84.88;;;21.73;;
36213;SDS011;37652;50.400;30.628;2022-12-10T05:01:50;109.38;;;29.98;;
36213;SDS011;37652;50.400;30.628;2022-12-10T05:03:51;76.47;;;24.77;;
36213;SDS011;37652;50.400;30.628;2022-12-10T05:05:51;68.68;;;24.38;;
36213;SDS011;37652;50.400;30.628;2022-12-10T05:07:52;63.10;;;23.98;;
36213;SDS011;37652;50.400;30.628;2022-12-10T05:09:53;89.10;;;27.25;;
36213;SDS011;37652;50.400;30.628;2022-12-10T05:11:54;75.85;;;25.77;;
36213;SDS011;37652;50.400;30.628;2022-12-10T05:13:55;91.57;;;30.40;;
36213;SDS011;37652;50.400;30.628;2022-12-10T05:15:56;88.70;;;27.85;;
36213;SDS011;37652;50.400;30.628;2022-12-10T05:17:57;84.13;;;27.60;;
36213;SDS011;37652;50.400;30.628;2022-12-10T05:19:58;70.00;;;26.42;;
36213;SDS011;37652;50.400;30.628;2022-12-10T05:21:59;65.03;;;25.77;;
36213;SDS011;37652;50.400;30.628;2022-12-10T05:24:18;67.72;;;24.38;;
36213;SDS011;37652;50.400;30.628;2022-12-10T05:26:20;67.13;;;24.73;;
36213;SDS011;37652;50.400;30.628;2022-12-10T05:28:22;65.25;;;24.00;;
36213;SDS011;37652;50.400;30.628;2022-12-10T05:30:23;77.20;;;28.38;;
36213;SDS011;37652;50.400;30.628;2022-12-10T05:32:23;61.00;;;23.10;;
36213;SDS011;37652;50.400;30.628;2022-12-10T05:34:24;62.55;;;24.73;;
36213;SDS011;37652;50.400;30.628;2022-12-10T05:36:26;68.57;;;25.42;;
36213;SDS011;37652;50.400;30.628;2022-12-10T05:38:29;63.80;;;24.60;;
36213;SDS011;37652;50.400;30.628;2022-12-10T05:40:34;63.25;;;24.15;;
36213;SDS011;37652;50.400;30.628;2022-12-10T05:42:35;61.92;;;24.67;;
36213;SDS011;37652;50.400;30.628;2022-12-10T05:44:36;52.90;;;22.83;;
36213;SDS011;37652;50.400;30.628;2022-12-10T05:46:36;57.15;;;23.33;;
36213;SDS011;37652;50.400;30.628;2022-12-10T05:48:37;59.67;;;24.70;;
36213;SDS011;37652;50.400;30.628;2022-12-10T05:50:38;47.95;;;20.63;;
36213;SDS011;37652;50.400;30.628;2022-12-10T05:52:39;63.95;;;24.85;;
36213;SDS011;37652;50.400;30.628;2022-12-10T05:54:40;59.80;;;23.67;;
36213;SDS011;37652;50.400;30.628;2022-12-10T05:56:41;58.63;;;23.17;;
36213;SDS011;37652;50.400;30.628;2022-12-10T05:58:42;45.93;;;17.17;;
36213;SDS011;37652;50.400;30.628;2022-12-10T06:00:44;55.70;;;23.05;;
36213;SDS011;37652;50.400;30.628;2022-12-10T06:02:44;67.82;;;24.85;;
36213;SDS011;37652;50.400;30.628;2022-12-10T06:04:45;41.90;;;18.30;;
36213;SDS011;37652;50.400;30.628;2022-12-10T06:06:45;57.75;;;23.10;;
36213;SDS011;37652;50.400;30.628;2022-12-10T06:10:48;35.07;;;15.53;;
36213;SDS011;37652;50.400;30.628;2022-12-10T06:12:48;56.97;;;24.05;;
36213;SDS011;37652;50.400;30.628;2022-12-10T06:14:49;65.95;;;26.08;;
36213;SDS011;37652;50.400;30.628;2022-12-10T06:16:50;61.17;;;23.20;;
36213;SDS011;37652;50.400;30.628;2022-12-10T06:18:50;36.97;;;15.83;;
36213;SDS011;37652;50.400;30.628;2022-12-10T06:20:51;47.78;;;20.98;;
36213;SDS011;37652;50.400;30.628;2022-12-10T06:22:52;46.93;;;21.43;;
36213;SDS011;37652;50.400;30.628;2022-12-10T06:24:52;34.30;;;15.57;;
36213;SDS011;37652;50.400;30.628;2022-12-10T06:26:53;55.73;;;21.77;;
36213;SDS011;37652;50.400;30.628;2022-12-10T06:28:54;59.33;;;23.95;;
36213;SDS011;37652;50.400;30.628;2022-12-10T06:30:54;55.22;;;21.55;;
36213;SDS011;37652;50.400;30.628;2022-12-10T06:32:58;52.80;;;22.45;;
36213;SDS011;37652;50.400;30.628;2022-12-10T06:34:59;49.58;;;22.48;;
36213;SDS011;37652;50.400;30.628;2022-12-10T06:36:59;52.42;;;21.63;;
36213;SDS011;37652;50.400;30.628;2022-12-10T06:39:01;48.17;;;21.42;;
36213;SDS011;37652;50.400;30.628;2022-12-10T06:41:05;47.42;;;21.40;;
36213;SDS011;37652;50.400;30.628;2022-12-10T06:43:08;42.03;;;20.27;;
36213;SDS011;37652;50.400;30.628;2022-12-10T06:45:09;43.03;;;21.40;;
36213;SDS011;37652;50.400;30.628;2022-12-10T06:47:10;48.85;;;21.00;;
36213;SDS011;37652;50.400;30.628;2022-12-10T06:49:11;41.15;;;18.75;;
36213;SDS011;37652;50.400;30.628;2022-12-10T06:51:12;35.55;;;19.27;;
36213;SDS011;37652;50.400;30.628;2022-12-10T06:53:14;42.10;;;19.58;;
36213;SDS011;37652;50.400;30.628;2022-12-10T06:55:15;38.55;;;19.08;;
36213;SDS011;37652;50.400;30.628;2022-12-10T06:57:16;37.63;;;19.95;;
36213;SDS011;37652;50.400;30.628;2022-12-10T06:59:17;32.67;;;16.05;;
36213;SDS011;37652;50.400;30.628;2022-12-10T07:01:19;35.53;;;17.92;;
36213;SDS011;37652;50.400;30.628;2022-12-10T07:03:21;40.30;;;18.42;;
36213;SDS011;37652;50.400;30.628;2022-12-10T07:05:21;37.97;;;17.05;;
36213;SDS011;37652;50.400;30.628;2022-12-10T07:07:22;30.50;;;16.33;;
36213;SDS011;37652;50.400;30.628;2022-12-10T07:09:23;42.35;;;18.17;;
36213;SDS011;37652;50.400;30.628;2022-12-10T07:11:24;42.40;;;20.20;;
36213;SDS011;37652;50.400;30.628;2022-12-10T07:15:26;37.73;;;17.33;;
36213;SDS011;37652;50.400;30.628;2022-12-10T07:17:28;37.95;;;18.38;;
36213;SDS011;37652;50.400;30.628;2022-12-10T07:19:28;37.10;;;18.55;;
36213;SDS011;37652;50.400;30.628;2022-12-10T07:21:30;39.63;;;17.87;;
36213;SDS011;37652;50.400;30.628;2022-12-10T07:23:32;38.13;;;17.05;;
36213;SDS011;37652;50.400;30.628;2022-12-10T07:25:33;33.72;;;17.48;;
36213;SDS011;37652;50.400;30.628;2022-12-10T07:27:34;30.83;;;16.35;;
36213;SDS011;37652;50.400;30.628;2022-12-10T07:29:34;36.92;;;16.95;;
36213;SDS011;37652;50.400;30.628;2022-12-10T07:31:35;34.65;;;17.10;;
36213;SDS011;37652;50.400;30.628;2022-12-10T07:33:36;33.45;;;16.45;;
36213;SDS011;37652;50.400;30.628;2022-12-10T07:35:38;32.08;;;15.73;;
36213;SDS011;37652;50.400;30.628;2022-12-10T07:37:39;29.80;;;15.95;;
36213;SDS011;37652;50.400;30.628;2022-12-10T07:39:40;27.50;;;15.10;;
36213;SDS011;37652;50.400;30.628;2022-12-10T07:41:43;32.42;;;16.58;;
36213;SDS011;37652;50.400;30.628;2022-12-10T07:43:47;29.42;;;14.73;;
36213;SDS011;37652;50.400;30.628;2022-12-10T07:45:48;33.67;;;16.95;;
36213;SDS011;37652;50.400;30.628;2022-12-10T07:47:49;29.05;;;14.65;;
36213;SDS011;37652;50.400;30.628;2022-12-10T07:49:49;33.45;;;17.92;;
36213;SDS011;37652;50.400;30.628;2022-12-10T07:51:50;26.40;;;15.73;;
36213;SDS011;37652;50.400;30.628;2022-12-10T07:53:51;37.35;;;17.77;;
36213;SDS011;37652;50.400;30.628;2022-12-10T07:55:53;32.85;;;17.05;;
36213;SDS011;37652;50.400;30.628;2022-12-10T07:57:54;33.88;;;17.48;;
36213;SDS011;37652;50.400;30.628;2022-12-10T07:59:54;39.70;;;18.92;;
36213;SDS011;37652;50.400;30.628;2022-12-10T08:01:55;28.13;;;16.02;;
36213;SDS011;37652;50.400;30.628;2022-12-10T08:03:56;34.28;;;18.48;;
36213;SDS011;37652;50.400;30.628;2022-12-10T08:06:01;30.73;;;18.80;;
36213;SDS011;37652;50.400;30.628;2022-12-10T08:08:06;44.08;;;17.95;;
36213;SDS011;37652;50.400;30.628;2022-12-10T08:10:07;34.10;;;16.90;;
36213;SDS011;37652;50.400;30.628;2022-12-10T08:12:08;35.42;;;17.80;;
36213;SDS011;37652;50.400;30.628;2022-12-10T08:14:09;46.77;;;22.80;;
36213;SDS011;37652;50.400;30.628;2022-12-10T08:16:14;36.83;;;19.45;;
36213;SDS011;37652;50.400;30.628;2022-12-10T08:18:16;33.58;;;17.40;;
36213;SDS011;37652;50.400;30.628;2022-12-10T08:20:16;39.90;;;17.90;;
36213;SDS011;37652;50.400;30.628;2022-12-10T08:22:17;37.53;;;18.83;;
36213;SDS011;37652;50.400;30.628;2022-12-10T08:24:17;35.17;;;17.33;;
36213;SDS011;37652;50.400;30.628;2022-12-10T08:26:19;38.00;;;16.48;;
36213;SDS011;37652;50.400;30.628;2022-12-10T08:28:22;36.03;;;18.15;;
36213;SDS011;37652;50.400;30.628;2022-12-10T08:30:23;36.53;;;17.13;;
36213;SDS011;37652;50.400;30.628;2022-12-10T08:32:23;36.63;;;17.25;;
36213;SDS011;37652;50.400;30.628;2022-12-10T08:34:24;30.92;;;14.98;;
36213;SDS011;37652;50.400;30.628;2022-12-10T08:36:24;34.05;;;16.92;;
36213;SDS011;37652;50.400;30.628;2022-12-10T08:38:25;34.78;;;17.10;;
36213;SDS011;37652;50.400;30.628;2022-12-10T08:40:27;35.65;;;16.08;;
36213;SDS011;37652;50.400;30.628;2022-12-10T08:42:27;25.20;;;14.27;;
36213;SDS011;37652;50.400;30.628;2022-12-10T08:44:28;35.70;;;16.85;;
36213;SDS011;37652;50.400;30.628;2022-12-10T08:46:29;34.70;;;17.20;;
36213;SDS011;37652;50.400;30.628;2022-12-10T08:48:30;26.33;;;14.88;;
36213;SDS011;37652;50.400;30.628;2022-12-10T08:50:32;33.85;;;17.52;;
36213;SDS011;37652;50.400;30.628;2022-12-10T08:52:32;31.98;;;16.27;;
36213;SDS011;37652;50.400;30.628;2022-12-10T08:54:33;34.40;;;15.65;;
36213;SDS011;37652;50.400;30.628;2022-12-10T08:56:34;36.10;;;16.35;;
36213;SDS011;37652;50.400;30.628;2022-12-10T08:58:35;35.35;;;16.95;;
36213;SDS011;37652;50.400;30.628;2022-12-10T09:00:36;30.70;;;17.10;;
36213;SDS011;37652;50.400;30.628;2022-12-10T09:02:37;33.90;;;17.20;;
36213;SDS011;37652;50.400;30.628;2022-12-10T09:04:38;36.78;;;17.52;;
36213;SDS011;37652;50.400;30.628;2022-12-10T09:06:39;33.58;;;15.88;;
36213;SDS011;37652;50.400;30.628;2022-12-10T09:08:39;37.42;;;17.27;;
36213;SDS011;37652;50.400;30.628;2022-12-10T09:10:40;33.95;;;16.20;;
36213;SDS011;37652;50.400;30.628;2022-12-10T09:12:41;35.92;;;15.85;;
36213;SDS011;37652;50.400;30.628;2022-12-10T09:14:42;33.85;;;16.50;;
36213;SDS011;37652;50.400;30.628;2022-12-10T09:16:43;29.50;;;15.73;;
36213;SDS011;37652;50.400;30.628;2022-12-10T09:18:43;31.45;;;15.60;;
36213;SDS011;37652;50.400;30.628;2022-12-10T09:20:44;32.80;;;15.63;;
36213;SDS011;37652;50.400;30.628;2022-12-10T09:22:45;46.42;;;17.42;;
36213;SDS011;37652;50.400;30.628;2022-12-10T09:24:46;27.17;;;12.25;;
36213;SDS011;37652;50.400;30.628;2022-12-10T09:26:46;44.57;;;15.50;;
36213;SDS011;37652;50.400;30.628;2022-12-10T09:28:47;34.67;;;15.93;;
36213;SDS011;37652;50.400;30.628;2022-12-10T09:30:55;35.85;;;16.65;;
36213;SDS011;37652;50.400;30.628;2022-12-10T09:32:56;38.90;;;16.17;;
36213;SDS011;37652;50.400;30.628;2022-12-10T09:34:57;29.20;;;15.23;;
36213;SDS011;37652;50.400;30.628;2022-12-10T09:36:57;37.75;;;18.00;;
36213;SDS011;37652;50.400;30.628;2022-12-10T09:38:58;51.63;;;15.50;;
36213;SDS011;37652;50.400;30.628;2022-12-10T09:41:00;26.80;;;14.38;;
36213;SDS011;37652;50.400;30.628;2022-12-10T09:43:22;39.63;;;16.05;;
36213;SDS011;37652;50.400;30.628;2022-12-10T09:46:05;33.95;;;14.48;;
36213;SDS011;37652;50.400;30.628;2022-12-10T09:50:19;34.72;;;16.45;;
36213;SDS011;37652;50.400;30.628;2022-12-10T09:52:27;35.22;;;15.45;;
36213;SDS011;37652;50.400;30.628;2022-12-10T09:54:44;42.00;;;16.58;;
36213;SDS011;37652;50.400;30.628;2022-12-10T09:56:48;35.05;;;15.88;;
36213;SDS011;37652;50.400;30.628;2022-12-10T09:58:51;33.08;;;15.63;;
36213;SDS011;37652;50.400;30.628;2022-12-10T10:00:57;37.33;;;16.60;;
36213;SDS011;37652;50.400;30.628;2022-12-10T13:27:01;87.80;;;24.42;;
36213;SDS011;37652;50.400;30.628;2022-12-10T13:29:25;160.48;;;26.92;;
36213;SDS011;37652;50.400;30.628;2022-12-10T13:33:27;113.97;;;26.60;;
36213;SDS011;37652;50.400;30.628;2022-12-10T13:35:59;77.65;;;21.67;;
36213;SDS011;37652;50.400;30.628;2022-12-10T13:38:05;116.95;;;28.35;;
36213;SDS011;37652;50.400;30.628;2022-12-10T13:42:55;89.18;;;24.17;;
36213;SDS011;37652;50.400;30.628;2022-12-10T13:47:25;165.15;;;28.50;;
36213;SDS011;37652;50.400;30.628;2022-12-10T13:49:28;104.72;;;28.60;;
36213;SDS011;37652;50.400;30.628;2022-12-10T13:53:53;173.15;;;29.80;;
36213;SDS011;37652;50.400;30.628;2022-12-10T13:56:06;67.80;;;21.95;;
36213;SDS011;37652;50.400;30.628;2022-12-10T14:07:44;70.03;;;26.83;;
36213;SDS011;37652;50.400;30.628;2022-12-10T14:09:51;81.30;;;27.73;;
36213;SDS011;37652;50.400;30.628;2022-12-10T14:11:56;96.32;;;26.48;;
36213;SDS011;37652;50.400;30.628;2022-12-10T14:14:00;81.95;;;23.90;;
36213;SDS011;37652;50.400;30.628;2022-12-10T14:18:10;64.93;;;22.52;;
36213;SDS011;37652;50.400;30.628;2022-12-10T14:20:14;86.20;;;24.60;;
36213;SDS011;37652;50.400;30.628;2022-12-10T14:22:29;99.43;;;25.85;;
36213;SDS011;37652;50.400;30.628;2022-12-10T14:24:35;99.10;;;26.88;;
36213;SDS011;37652;50.400;30.628;2022-12-10T14:26:37;66.80;;;23.48;;
36213;SDS011;37652;50.400;30.628;2022-12-10T14:28:39;75.85;;;25.73;;
36213;SDS011;37652;50.400;30.628;2022-12-10T14:30:43;81.32;;;25.33;;
36213;SDS011;37652;50.400;30.628;2022-12-10T14:32:45;66.32;;;23.90;;
36213;SDS011;37652;50.400;30.628;2022-12-10T14:34:51;125.03;;;27.05;;
36213;SDS011;37652;50.400;30.628;2022-12-10T14:36:57;126.57;;;29.92;;
36213;SDS011;37652;50.400;30.628;2022-12-10T14:39:02;99.00;;;27.90;;
36213;SDS011;37652;50.400;30.628;2022-12-10T14:41:04;98.03;;;25.40;;
36213;SDS011;37652;50.400;30.628;2022-12-10T14:43:08;81.05;;;26.48;;
36213;SDS011;37652;50.400;30.628;2022-12-10T14:45:14;91.38;;;25.25;;
36213;SDS011;37652;50.400;30.628;2022-12-10T14:47:17;112.25;;;28.38;;
36213;SDS011;37652;50.400;30.628;2022-12-10T14:49:23;100.20;;;27.45;;
36213;SDS011;37652;50.400;30.628;2022-12-10T14:51:30;150.65;;;33.20;;
36213;SDS011;37652;50.400;30.628;2022-12-10T14:53:33;142.02;;;29.25;;
36213;SDS011;37652;50.400;30.628;2022-12-10T14:55:34;156.45;;;30.13;;
36213;SDS011;37652;50.400;30.628;2022-12-10T14:57:38;109.57;;;28.58;;
36213;SDS011;37652;50.400;30.628;2022-12-10T14:59:50;105.50;;;28.02;;
36213;SDS011;37652;50.400;30.628;2022-12-10T15:02:05;92.30;;;29.55;;
36213;SDS011;37652;50.400;30.628;2022-12-10T15:04:38;110.93;;;28.77;;
36213;SDS011;37652;50.400;30.628;2022-12-10T15:06:44;82.10;;;26.15;;
36213;SDS011;37652;50.400;30.628;2022-12-10T15:08:46;62.03;;;23.98;;
36213;SDS011;37652;50.400;30.628;2022-12-10T15:10:50;82.78;;;26.85;;
36213;SDS011;37652;50.400;30.628;2022-12-10T15:12:52;74.60;;;25.77;;
36213;SDS011;37652;50.400;30.628;2022-12-10T15:14:55;66.25;;;24.75;;
36213;SDS011;37652;50.400;30.628;2022-12-10T15:16:57;62.67;;;23.63;;
36213;SDS011;37652;50.400;30.628;2022-12-10T15:19:58;63.60;;;23.50;;
36213;SDS011;37652;50.400;30.628;2022-12-10T15:21:27;53.90;;;22.83;;
36213;SDS011;37652;50.400;30.628;2022-12-10T15:25:29;132.88;;;32.45;;
36213;SDS011;37652;50.400;30.628;2022-12-10T15:27:30;65.53;;;27.08;;
36213;SDS011;37652;50.400;30.628;2022-12-10T15:29:32;53.90;;;23.67;;
36213;SDS011;37652;50.400;30.628;2022-12-10T15:31:34;62.72;;;25.40;;
36213;SDS011;37652;50.400;30.628;2022-12-10T15:33:45;68.38;;;25.75;;
36213;SDS011;37652;50.400;30.628;2022-12-10T15:35:48;72.05;;;25.55;;
36213;SDS011;37652;50.400;30.628;2022-12-10T15:37:49;74.53;;;24.90;;
36213;SDS011;37652;50.400;30.628;2022-12-10T15:39:57;72.50;;;25.50;;
36213;SDS011;37652;50.400;30.628;2022-12-10T15:42:07;48.53;;;20.88;;
36213;SDS011;37652;50.400;30.628;2022-12-10T15:46:28;82.40;;;24.23;;
36213;SDS011;37652;50.400;30.628;2022-12-10T15:48:29;67.60;;;25.02;;
36213;SDS011;37652;50.400;30.628;2022-12-10T15:50:31;63.58;;;24.45;;
36213;SDS011;37652;50.400;30.628;2022-12-10T15:52:32;78.22;;;25.95;;
36213;SDS011;37652;50.400;30.628;2022-12-10T15:54:36;62.20;;;23.95;;
36213;SDS011;37652;50.400;30.628;2022-12-10T15:56:38;74.38;;;27.23;;
36213;SDS011;37652;50.400;30.628;2022-12-10T15:58:39;64.45;;;24.67;;
36213;SDS011;37652;50.400;30.628;2022-12-10T16:00:41;67.22;;;26.80;;
36213;SDS011;37652;50.400;30.628;2022-12-10T16:04:50;73.43;;;26.20;;
36213;SDS011;37652;50.400;30.628;2022-12-10T16:06:51;61.97;;;22.90;;
36213;SDS011;37652;50.400;30.628;2022-12-10T16:08:52;50.05;;;20.77;;
36213;SDS011;37652;50.400;30.628;2022-12-10T16:10:54;97.93;;;25.83;;
36213;SDS011;37652;50.400;30.628;2022-12-10T16:13:07;55.15;;;24.08;;
36213;SDS011;37652;50.400;30.628;2022-12-10T16:15:20;79.22;;;25.15;;
36213;SDS011;37652;50.400;30.628;2022-12-10T16:17:28;62.03;;;23.13;;
36213;SDS011;37652;50.400;30.628;2022-12-10T16:19:29;58.50;;;22.60;;
36213;SDS011;37652;50.400;30.628;2022-12-10T16:21:30;49.10;;;21.75;;
36213;SDS011;37652;50.400;30.628;2022-12-10T16:23:30;44.22;;;20.83;;
36213;SDS011;37652;50.400;30.628;2022-12-10T16:25:31;42.95;;;18.75;;
36213;SDS011;37652;50.400;30.628;2022-12-10T16:27:33;47.38;;;19.88;;
36213;SDS011;37652;50.400;30.628;2022-12-10T16:29:36;61.65;;;23.75;;
36213;SDS011;37652;50.400;30.628;2022-12-10T16:31:37;79.57;;;26.20;;
36213;SDS011;37652;50.400;30.628;2022-12-10T16:33:38;56.50;;;22.92;;
36213;SDS011;37652;50.400;30.628;2022-12-10T16:35:39;51.00;;;21.92;;
36213;SDS011;37652;50.400;30.628;2022-12-10T16:37:43;108.30;;;28.42;;
36213;SDS011;37652;50.400;30.628;2022-12-10T16:39:45;77.63;;;25.52;;
36213;SDS011;37652;50.400;30.628;2022-12-10T16:41:50;81.65;;;26.80;;
36213;SDS011;37652;50.400;30.628;2022-12-10T16:43:53;58.88;;;24.95;;
36213;SDS011;37652;50.400;30.628;2022-12-10T16:45:54;63.83;;;25.65;;
36213;SDS011;37652;50.400;30.628;2022-12-10T16:47:56;84.85;;;26.95;;
36213;SDS011;37652;50.400;30.628;2022-12-10T16:49:58;72.75;;;24.40;;
36213;SDS011;37652;50.400;30.628;2022-12-10T16:51:59;94.20;;;27.25;;
36213;SDS011;37652;50.400;30.628;2022-12-10T16:54:00;75.70;;;26.58;;
36213;SDS011;37652;50.400;30.628;2022-12-10T16:56:01;94.43;;;29.40;;
36213;SDS011;37652;50.400;30.628;2022-12-10T16:58:02;122.38;;;32.65;;
36213;SDS011;37652;50.400;30.628;2022-12-10T17:00:03;79.90;;;29.88;;
36213;SDS011;37652;50.400;30.628;2022-12-10T17:02:14;139.10;;;35.38;;
36213;SDS011;37652;50.400;30.628;2022-12-10T17:04:15;68.15;;;28.25;;
36213;SDS011;37652;50.400;30.628;2022-12-10T17:06:17;58.78;;;25.10;;
36213;SDS011;37652;50.400;30.628;2022-12-10T17:08:18;60.03;;;24.70;;
36213;SDS011;37652;50.400;30.628;2022-12-10T17:10:19;68.75;;;27.38;;
36213;SDS011;37652;50.400;30.628;2022-12-10T17:12:42;98.70;;;28.73;;
36213;SDS011;37652;50.400;30.628;2022-12-10T17:14:44;64.10;;;27.05;;
36213;SDS011;37652;50.400;30.628;2022-12-10T17:16:46;63.90;;;26.77;;
36213;SDS011;37652;50.400;30.628;2022-12-10T17:18:47;72.85;;;28.75;;
36213;SDS011;37652;50.400;30.628;2022-12-10T17:20:48;75.15;;;32.72;;
36213;SDS011;37652;50.400;30.628;2022-12-10T17:22:49;71.90;;;30.45;;
36213;SDS011;37652;50.400;30.628;2022-12-10T17:24:50;87.05;;;32.95;;
36213;SDS011;37652;50.400;30.628;2022-12-10T17:26:50;54.17;;;25.02;;
36213;SDS011;37652;50.400;30.628;2022-12-10T17:28:54;60.05;;;25.17;;
36213;SDS011;37652;50.400;30.628;2022-12-10T17:31:01;74.35;;;31.33;;
36213;SDS011;37652;50.400;30.628;2022-12-10T17:33:01;83.30;;;34.67;;
36213;SDS011;37652;50.400;30.628;2022-12-10T17:35:02;72.63;;;30.67;;
36213;SDS011;37652;50.400;30.628;2022-12-10T17:37:07;89.78;;;36.58;;
36213;SDS011;37652;50.400;30.628;2022-12-10T17:39:15;97.82;;;36.63;;
36213;SDS011;37652;50.400;30.628;2022-12-10T17:41:17;87.05;;;34.22;;
36213;SDS011;37652;50.400;30.628;2022-12-10T17:43:18;77.75;;;33.58;;
36213;SDS011;37652;50.400;30.628;2022-12-10T17:45:19;89.43;;;33.40;;
36213;SDS011;37652;50.400;30.628;2022-12-10T17:47:23;75.88;;;32.47;;
36213;SDS011;37652;50.400;30.628;2022-12-10T17:49:24;73.93;;;31.13;;
36213;SDS011;37652;50.400;30.628;2022-12-10T17:51:25;71.95;;;29.40;;
36213;SDS011;37652;50.400;30.628;2022-12-10T17:53:26;81.05;;;34.47;;
36213;SDS011;37652;50.400;30.628;2022-12-10T17:55:28;63.63;;;27.85;;
36213;SDS011;37652;50.400;30.628;2022-12-10T17:57:29;65.15;;;26.52;;
36213;SDS011;37652;50.400;30.628;2022-12-10T17:59:30;90.55;;;34.13;;
36213;SDS011;37652;50.400;30.628;2022-12-10T18:03:33;89.10;;;36.65;;
36213;SDS011;37652;50.400;30.628;2022-12-10T18:05:35;88.60;;;33.80;;
36213;SDS011;37652;50.400;30.628;2022-12-10T18:07:35;100.25;;;37.83;;
36213;SDS011;37652;50.400;30.628;2022-12-10T18:09:38;95.43;;;39.70;;
36213;SDS011;37652;50.400;30.628;2022-12-10T18:11:39;101.40;;;39.40;;
36213;SDS011;37652;50.400;30.628;2022-12-10T18:13:43;80.78;;;32.60;;
36213;SDS011;37652;50.400;30.628;2022-12-10T18:15:44;70.97;;;27.38;;
36213;SDS011;37652;50.400;30.628;2022-12-10T18:17:45;65.80;;;28.35;;
36213;SDS011;37652;50.400;30.628;2022-12-10T18:19:46;68.95;;;28.02;;
36213;SDS011;37652;50.400;30.628;2022-12-10T18:21:47;61.42;;;26.88;;
36213;SDS011;37652;50.400;30.628;2022-12-10T18:23:47;104.82;;;38.97;;
36213;SDS011;37652;50.400;30.628;2022-12-10T18:25:51;71.88;;;30.15;;
36213;SDS011;37652;50.400;30.628;2022-12-10T18:27:52;65.30;;;26.55;;
36213;SDS011;37652;50.400;30.628;2022-12-10T18:29:56;50.17;;;22.63;;
36213;SDS011;37652;50.400;30.628;2022-12-10T18:31:57;60.30;;;22.98;;
36213;SDS011;37652;50.400;30.628;2022-12-10T18:34:01;35.80;;;18.15;;
36213;SDS011;37652;50.400;30.628;2022-12-10T18:36:04;50.85;;;22.33;;
36213;SDS011;37652;50.400;30.628;2022-12-10T18:38:05;98.30;;;37.47;;
36213;SDS011;37652;50.400;30.628;2022-12-10T18:40:06;86.18;;;34.70;;
36213;SDS011;37652;50.400;30.628;2022-12-10T18:42:12;84.35;;;39.00;;
36213;SDS011;37652;50.400;30.628;2022-12-10T18:44:13;81.88;;;34.17;;
36213;SDS011;37652;50.400;30.628;2022-12-10T18:46:18;85.80;;;36.50;;
36213;SDS011;37652;50.400;30.628;2022-12-10T18:48:21;82.20;;;38.28;;
36213;SDS011;37652;50.400;30.628;2022-12-10T18:50:23;90.23;;;39.33;;
36213;SDS011;37652;50.400;30.628;2022-12-10T18:52:25;90.25;;;37.08;;
36213;SDS011;37652;50.400;30.628;2022-12-10T18:54:26;76.78;;;32.83;;
36213;SDS011;37652;50.400;30.628;2022-12-10T18:56:27;77.80;;;33.05;;
36213;SDS011;37652;50.400;30.628;2022-12-10T18:58:31;79.05;;;32.33;;
36213;SDS011;37652;50.400;30.628;2022-12-10T21:31:41;74.90;;;31.48;;
36213;SDS011;37652;50.400;30.628;2022-12-10T21:33:41;92.43;;;34.78;;
36213;SDS011;37652;50.400;30.628;2022-12-10T21:35:42;94.30;;;39.33;;
36213;SDS011;37652;50.400;30.628;2022-12-10T21:37:43;125.40;;;48.65;;
36213;SDS011;37652;50.400;30.628;2022-12-10T21:39:44;113.53;;;45.95;;
36213;SDS011;37652;50.400;30.628;2022-12-10T21:41:44;116.53;;;45.08;;
36213;SDS011;37652;50.400;30.628;2022-12-10T21:44:03;104.05;;;44.67;;
36213;SDS011;37652;50.400;30.628;2022-12-10T21:46:06;105.97;;;42.22;;
36213;SDS011;37652;50.400;30.628;2022-12-10T21:48:08;109.10;;;44.10;;
36213;SDS011;37652;50.400;30.628;2022-12-10T21:52:11;103.85;;;43.70;;
36213;SDS011;37652;50.400;30.628;2022-12-10T21:54:12;103.40;;;40.28;;
36213;SDS011;37652;50.400;30.628;2022-12-10T21:56:13;112.32;;;49.67;;
36213;SDS011;37652;50.400;30.628;2022-12-10T21:58:14;149.25;;;52.85;;
36213;SDS011;37652;50.400;30.628;2022-12-10T22:00:15;109.90;;;46.38;;
36213;SDS011;37652;50.400;30.628;2022-12-10T22:02:17;88.90;;;39.80;;
36213;SDS011;37652;50.400;30.628;2022-12-10T22:04:18;134.80;;;49.85;;
36213;SDS011;37652;50.400;30.628;2022-12-10T22:06:20;131.00;;;48.85;;
36213;SDS011;37652;50.400;30.628;2022-12-10T22:08:22;116.35;;;45.15;;
36213;SDS011;37652;50.400;30.628;2022-12-10T22:10:22;110.55;;;40.60;;
36213;SDS011;37652;50.400;30.628;2022-12-10T22:12:23;116.30;;;42.55;;
36213;SDS011;37652;50.400;30.628;2022-12-10T22:14:24;137.90;;;48.85;;
36213;SDS011;37652;50.400;30.628;2022-12-10T22:16:25;92.07;;;36.47;;
36213;SDS011;37652;50.400;30.628;2022-12-10T22:18:25;55.78;;;26.25;;
36213;SDS011;37652;50.400;30.628;2022-12-10T22:20:26;64.10;;;25.00;;
36213;SDS011;37652;50.400;30.628;2022-12-10T22:22:27;70.53;;;25.97;;
36213;SDS011;37652;50.400;30.628;2022-12-10T22:24:28;66.25;;;26.10;;
36213;SDS011;37652;50.400;30.628;2022-12-10T22:26:29;59.20;;;24.48;;
36213;SDS011;37652;50.400;30.628;2022-12-10T22:28:30;50.22;;;21.90;;
36213;SDS011;37652;50.400;30.628;2022-12-10T22:30:31;54.30;;;25.17;;
36213;SDS011;37652;50.400;30.628;2022-12-10T22:32:31;55.60;;;25.00;;
36213;SDS011;37652;50.400;30.628;2022-12-10T22:34:32;49.63;;;22.85;;
36213;SDS011;37652;50.400;30.628;2022-12-10T22:36:32;83.22;;;31.63;;
36213;SDS011;37652;50.400;30.628;2022-12-10T22:38:34;76.25;;;33.08;;
36213;SDS011;37652;50.400;30.628;2022-12-10T22:40:35;53.53;;;25.35;;
36213;SDS011;37652;50.400;30.628;2022-12-10T22:42:39;67.55;;;27.48;;